Time;durP1;ratioP1;P1;durP2;ratioP2;P2;SDS_P1;SDS_P2;PMS_P1;PMS_P2;Temp;Humidity;BMP_temperature;BMP_pressure;BME280_temperature;BME280_humidity;BME280_pressure;Samples;Min_cycle;Max_cycle;Signal;HPM_P1;HPM_P2
2022/03/08 00:00:38;;;;;;;33.57;16.10;;;;;;;-0.09;93.80;96450.94;4962691;28;20249;-81
2022/03/08 00:03:06;;;;;;;31.03;17.23;;;;;;;-0.15;94.30;96448.91;4990448;28;20221;-82
2022/03/08 00:05:33;;;;;;;31.90;17.83;;;;;;;-0.23;93.96;96440.09;4965470;28;20237;-81
2022/03/08 00:08:01;;;;;;;30.17;16.53;;;;;;;-0.21;95.03;96446.91;4963809;28;20202;-81
2022/03/08 00:10:30;;;;;;;31.23;18.50;;;;;;;-0.14;95.12;96453.22;4962706;28;20205;-82
2022/03/08 00:12:57;;;;;;;32.67;18.17;;;;;;;-0.10;95.00;96454.59;4963092;28;20231;-82
2022/03/08 00:15:26;;;;;;;29.50;17.97;;;;;;;-0.09;94.45;96464.22;4958862;28;20207;-81
2022/03/08 00:17:55;;;;;;;32.67;16.83;;;;;;;-0.06;94.72;96457.72;4953485;28;20260;-82
2022/03/08 00:20:22;;;;;;;26.83;16.27;;;;;;;-0.10;94.14;96459.88;4962380;28;20205;-82
2022/03/08 00:22:50;;;;;;;28.73;15.90;;;;;;;-0.15;93.83;96459.53;4957291;28;20233;-82
2022/03/08 00:25:17;;;;;;;31.07;18.37;;;;;;;-0.23;94.72;96454.19;4963221;28;20562;-81
2022/03/08 00:27:47;;;;;;;31.10;17.53;;;;;;;-0.20;95.16;96467.16;4966669;28;20219;-82
2022/03/08 00:30:17;;;;;;;31.83;17.77;;;;;;;-0.23;94.31;96464.81;4966464;28;20296;-82
2022/03/08 00:32:45;;;;;;;30.20;16.97;;;;;;;-0.27;96.07;96463.47;5000892;28;20216;-82
2022/03/08 00:35:22;;;;;;;;;;;;;;;;;;;;;
2022/03/08 00:37:51;;;;;;;27.73;16.60;;;;;;;-0.34;95.36;96467.75;4951362;28;20297;-81
2022/03/08 00:40:19;;;;;;;27.37;16.23;;;;;;;-0.50;96.77;96454.41;4965075;28;20224;-82
2022/03/08 00:42:48;;;;;;;29.23;17.27;;;;;;;-0.56;97.73;96461.19;4963709;28;20213;-82
2022/03/08 00:45:15;;;;;;;28.23;16.27;;;;;;;-0.63;97.01;96456.69;4963958;28;20207;-82
2022/03/08 00:47:43;;;;;;;28.83;16.97;;;;;;;-0.72;98.57;96461.13;4951747;28;20267;-82
2022/03/08 00:50:17;;;;;;;28.23;15.80;;;;;;;-0.83;99.36;96453.41;4953404;28;20213;-82
2022/03/08 00:52:44;;;;;;;26.03;15.57;;;;;;;-0.92;99.46;96444.59;4950798;28;20308;-82
2022/03/08 00:55:13;;;;;;;25.10;14.77;;;;;;;-0.97;100.00;96446.91;4967521;28;20206;-83
2022/03/08 00:57:40;;;;;;;27.97;15.43;;;;;;;-0.90;100.00;96447.94;4965536;28;20225;-83
2022/03/08 01:00:12;;;;;;;25.90;15.20;;;;;;;-0.91;100.00;96451.56;4957008;28;20209;-82
2022/03/08 01:02:40;;;;;;;25.77;15.27;;;;;;;-0.92;99.86;96438.47;4990334;28;20212;-82
2022/03/08 01:05:08;;;;;;;26.10;14.97;;;;;;;-0.91;99.78;96435.66;4960850;28;20209;-83
2022/03/08 01:07:35;;;;;;;27.50;15.40;;;;;;;-0.90;99.45;96434.66;4965157;28;20228;-82
2022/03/08 01:10:04;;;;;;;23.20;13.97;;;;;;;-0.97;99.34;96425.69;4962618;28;20234;-83
2022/03/08 01:12:31;;;;;;;25.37;13.43;;;;;;;-1.09;99.67;96429.59;4977059;28;20209;-82
2022/03/08 01:15:00;;;;;;;25.90;15.00;;;;;;;-1.20;100.00;96420.09;4953033;28;20272;-83
2022/03/08 01:17:29;;;;;;;23.03;13.73;;;;;;;-1.20;100.00;96424.56;4958430;28;20201;-84
2022/03/08 01:19:57;;;;;;;26.17;14.67;;;;;;;-1.17;99.90;96427.72;4970824;28;20205;-84
2022/03/08 01:22:25;;;;;;;21.33;13.00;;;;;;;-1.21;99.65;96425.53;4953497;28;20507;-84
2022/03/08 01:24:54;;;;;;;24.23;13.87;;;;;;;-1.23;99.25;96425.69;4966587;28;20274;-84
2022/03/08 01:27:21;;;;;;;25.37;14.73;;;;;;;-1.15;100.00;96416.97;4962383;28;20220;-84
2022/03/08 01:29:48;;;;;;;22.47;13.40;;;;;;;-1.05;100.00;96422.16;4971714;28;20292;-84
2022/03/08 01:32:15;;;;;;;24.07;13.17;;;;;;;-0.98;100.00;96426.69;4957274;28;20254;-84
2022/03/08 01:34:44;;;;;;;21.20;13.63;;;;;;;-0.93;99.18;96427.03;4956555;28;20263;-84
2022/03/08 01:37:14;;;;;;;23.67;14.30;;;;;;;-0.93;98.75;96423.53;4952515;28;20317;-84
2022/03/08 01:39:42;;;;;;;24.10;14.03;;;;;;;-0.88;98.22;96432.69;4958630;28;20369;-85
2022/03/08 01:42:10;;;;;;;24.17;13.87;;;;;;;-1.02;99.61;96422.66;4958315;28;20204;-84
2022/03/08 01:44:41;;;;;;;27.47;14.97;;;;;;;-0.98;99.87;96423.19;4968176;28;20216;-84
2022/03/08 01:47:14;;;;;;;26.23;15.20;;;;;;;-0.94;99.65;96419.25;4961224;28;20205;-84
2022/03/08 01:49:44;;;;;;;24.77;14.40;;;;;;;-0.97;99.49;96408.97;4958735;28;20217;-83
2022/03/08 01:52:11;;;;;;;26.07;15.13;;;;;;;-0.94;98.75;96413.97;4961624;28;20236;-84
2022/03/08 01:54:39;;;;;;;26.10;15.43;;;;;;;-0.99;99.07;96410.94;4960658;28;20244;-83
2022/03/08 01:57:06;;;;;;;27.70;15.93;;;;;;;-1.03;99.03;96415.72;4992194;28;20208;-84
2022/03/08 01:59:34;;;;;;;28.27;16.27;;;;;;;-1.00;100.00;96415.41;4954843;28;20237;-84
2022/03/08 02:02:01;;;;;;;29.47;15.73;;;;;;;-0.92;99.88;96418.09;4958013;28;20234;-84
2022/03/08 02:04:29;;;;;;;26.43;16.00;;;;;;;-0.90;99.22;96410.81;4970894;28;20623;-84
2022/03/08 02:06:57;;;;;;;29.73;15.47;;;;;;;-0.83;99.80;96413.66;4980284;28;20237;-84
2022/03/08 02:09:24;;;;;;;24.43;14.57;;;;;;;-0.89;98.90;96415.13;4958311;28;20212;-84
2022/03/08 02:11:52;;;;;;;28.20;16.23;;;;;;;-0.88;100.00;96419.44;4963230;28;20209;-84
2022/03/08 02:14:20;;;;;;;28.70;15.87;;;;;;;-0.87;98.72;96423.75;4959288;28;20231;-84
2022/03/08 02:16:48;;;;;;;26.37;15.47;;;;;;;-0.89;99.46;96419.59;4955225;28;20235;-84
2022/03/08 02:19:16;;;;;;;25.63;15.50;;;;;;;-0.94;99.12;96417.44;4957243;28;20225;-84
2022/03/08 02:21:45;;;;;;;25.37;15.93;;;;;;;-0.95;100.00;96413.13;4953954;28;20304;-84
2022/03/08 02:24:12;;;;;;;25.63;14.97;;;;;;;-0.97;99.70;96401.84;4956533;28;20228;-84
2022/03/08 02:26:39;;;;;;;24.23;14.27;;;;;;;-0.92;100.00;96404.00;4969534;28;20237;-85
2022/03/08 02:29:08;;;;;;;26.83;14.73;;;;;;;-0.89;99.29;96399.22;4962996;28;20216;-84
2022/03/08 02:31:36;;;;;;;24.63;14.17;;;;;;;-0.87;97.86;96401.72;4974811;28;20209;-84
2022/03/08 02:34:04;;;;;;;23.30;13.33;;;;;;;-0.93;98.10;96394.38;4954428;28;20213;-84
2022/03/08 02:36:31;;;;;;;22.53;12.83;;;;;;;-1.04;97.35;96392.88;4960045;28;20209;-84
2022/03/08 02:39:00;;;;;;;21.93;12.30;;;;;;;-1.14;96.58;96384.19;4957844;28;20254;-84
2022/03/08 02:41:27;;;;;;;21.63;12.40;;;;;;;-1.23;96.63;96380.66;4958889;28;20209;-84
2022/03/08 02:43:55;;;;;;;21.80;11.63;;;;;;;-1.35;97.85;96383.72;4962739;28;20209;-84
2022/03/08 02:46:22;;;;;;;23.97;11.90;;;;;;;-1.49;98.35;96377.19;4958122;28;20206;-84
2022/03/08 02:48:51;;;;;;;22.87;13.17;;;;;;;-1.57;99.69;96382.41;4971816;28;20220;-84
2022/03/08 02:51:20;;;;;;;20.40;12.27;;;;;;;-1.62;100.00;96382.06;4959619;28;20206;-84
2022/03/08 02:53:47;;;;;;;20.60;12.20;;;;;;;-1.58;100.00;96384.25;4953655;28;20221;-84
2022/03/08 02:56:18;;;;;;;25.90;13.70;;;;;;;-1.59;100.00;96368.50;4957802;28;20228;-85
2022/03/08 02:58:46;;;;;;;22.03;13.03;;;;;;;-1.54;100.00;96371.53;4955694;28;20239;-84
2022/03/08 03:01:14;;;;;;;21.10;12.00;;;;;;;-1.47;100.00;96369.09;4960735;28;20212;-84
2022/03/08 03:03:43;;;;;;;18.13;10.20;;;;;;;-1.50;98.44;96364.09;4958542;28;20220;-84
2022/03/08 03:06:13;;;;;;;19.03;11.00;;;;;;;-1.48;98.22;96367.41;4959200;28;20225;-84
2022/03/08 03:08:40;;;;;;;23.83;12.27;;;;;;;-1.46;99.34;96360.16;4959204;28;20205;-84
2022/03/08 03:11:07;;;;;;;20.60;11.67;;;;;;;-1.43;99.24;96350.06;4957201;28;20219;-85
2022/03/08 03:13:36;;;;;;;18.87;10.90;;;;;;;-1.37;98.79;96351.28;4948863;28;20208;-84
2022/03/08 03:16:03;;;;;;;20.67;11.97;;;;;;;-1.37;97.80;96352.13;4957192;28;20212;-84
2022/03/08 03:18:30;;;;;;;20.20;10.97;;;;;;;-1.38;97.22;96334.56;4958925;28;20217;-84
2022/03/08 03:20:57;;;;;;;22.40;12.40;;;;;;;-1.39;98.38;96335.53;4952228;28;20228;-84
2022/03/08 03:23:27;;;;;;;23.00;13.33;;;;;;;-1.28;98.43;96342.41;4956292;28;20236;-84
2022/03/08 03:25:58;;;;;;;20.77;12.17;;;;;;;-1.30;97.40;96336.41;4963881;28;20309;-85
2022/03/08 03:28:25;;;;;;;22.10;12.33;;;;;;;-1.31;98.00;96330.28;4952761;28;20213;-84
2022/03/08 03:30:59;;;;;;;22.07;12.73;;;;;;;-1.33;97.32;96318.19;4959092;28;20278;-84
2022/03/08 03:33:28;;;;;;;21.10;12.37;;;;;;;-1.35;97.28;96334.22;4949968;28;20919;-84
2022/03/08 03:35:55;;;;;;;21.83;12.63;;;;;;;-1.34;96.46;96332.41;4955384;28;20296;-84
2022/03/08 03:38:23;;;;;;;22.70;13.10;;;;;;;-1.34;97.56;96341.19;4959639;28;20248;-85
2022/03/08 03:40:50;;;;;;;20.47;11.77;;;;;;;-1.33;97.47;96349.97;4976966;28;20292;-84
2022/03/08 03:43:21;;;;;;;17.73;10.63;;;;;;;-1.34;97.34;96343.00;4957613;28;20280;-84
2022/03/08 03:45:54;;;;;;;20.13;11.13;;;;;;;-1.34;95.90;96349.13;4962099;28;20224;-85
2022/03/08 03:48:23;;;;;;;20.20;10.97;;;;;;;-1.37;95.91;96348.63;4966393;28;20208;-85
2022/03/08 03:50:55;;;;;;;19.30;10.37;;;;;;;-1.39;95.96;96356.72;4959344;28;20288;-84
2022/03/08 03:53:30;;;;;;;20.17;11.23;;;;;;;-1.48;96.24;96343.59;4963254;28;20275;-84
2022/03/08 03:55:58;;;;;;;19.10;11.67;;;;;;;-1.43;97.19;96343.94;4962662;28;20212;-84
2022/03/08 03:58:26;;;;;;;18.30;11.37;;;;;;;-1.41;96.91;96352.56;4976893;28;20228;-85
2022/03/08 04:00:53;;;;;;;20.23;11.30;;;;;;;-1.46;96.50;96344.28;4961709;28;20247;-84
2022/03/08 04:03:28;;;;;;;18.90;10.17;;;;;;;-1.48;96.76;96354.19;4961931;28;20236;-84
2022/03/08 04:06:04;;;;;;;25.87;14.37;;;;;;;-1.56;95.28;96365.56;4957070;28;20223;-84
2022/03/08 04:08:31;;;;;;;27.80;14.30;;;;;;;-1.67;96.01;96363.97;4975024;28;20229;-84
2022/03/08 04:10:58;;;;;;;27.37;14.10;;;;;;;-1.74;96.90;96373.53;4962027;28;20231;-84
2022/03/08 04:13:29;;;;;;;25.17;14.20;;;;;;;-1.78;97.57;96372.16;4981700;28;20221;-84
2022/03/08 04:16:00;;;;;;;26.27;15.07;;;;;;;-1.82;98.34;96375.28;4961516;28;20205;-84
2022/03/08 04:18:29;;;;;;;27.27;15.77;;;;;;;-1.84;99.00;96372.78;4953561;28;20210;-84
2022/03/08 04:20:59;;;;;;;28.03;15.23;;;;;;;-1.79;99.25;96380.28;4970918;28;20200;-84
2022/03/08 04:23:26;;;;;;;27.37;15.90;;;;;;;-1.80;99.96;96379.44;4956305;28;20343;-84
2022/03/08 04:25:53;;;;;;;30.43;16.13;;;;;;;-1.75;100.00;96384.25;4955648;28;20229;-84
2022/03/08 04:28:28;;;;;;;37.47;17.87;;;;;;;-1.75;99.63;96387.75;4957865;28;20216;-84
2022/03/08 04:30:56;;;;;;;24.13;14.23;;;;;;;-1.82;98.71;96397.28;4962022;28;20207;-84
2022/03/08 04:33:23;;;;;;;27.33;14.03;;;;;;;-1.91;100.00;96392.91;4977897;28;20252;-84
2022/03/08 04:35:55;;;;;;;49.37;22.87;;;;;;;-1.93;100.00;96397.50;4956083;28;20205;-84
2022/03/08 04:38:29;;;;;;;50.73;24.53;;;;;;;-1.93;100.00;96405.44;4960237;28;20247;-84
2022/03/08 04:41:06;;;;;;;36.60;17.37;;;;;;;-1.91;100.00;96414.06;4954730;28;20211;-83
2022/03/08 04:43:34;;;;;;;40.80;20.03;;;;;;;-1.80;100.00;96413.84;4962941;28;20213;-84
2022/03/08 04:46:07;;;;;;;33.73;17.60;;;;;;;-1.85;100.00;96416.09;4963369;28;20205;-84
2022/03/08 04:48:35;;;;;;;28.63;14.10;;;;;;;-1.83;100.00;96416.78;4958966;28;20205;-84
2022/03/08 04:51:11;;;;;;;28.10;15.10;;;;;;;-1.83;100.00;96415.97;4975772;28;20213;-84
2022/03/08 04:53:43;;;;;;;27.67;15.90;;;;;;;-1.88;100.00;96413.78;5023042;28;20266;-83
2022/03/08 04:56:11;;;;;;;30.00;13.83;;;;;;;-1.96;100.00;96421.66;4975298;28;20212;-84
2022/03/08 04:58:52;;;;;;;27.37;14.37;;;;;;;-1.94;100.00;96419.66;4970456;28;20216;-84
2022/03/08 05:01:28;;;;;;;25.27;13.90;;;;;;;-1.99;100.00;96419.28;4960714;28;20215;-84
2022/03/08 05:03:55;;;;;;;24.33;12.90;;;;;;;-2.09;100.00;96407.94;4970852;28;20276;-83
2022/03/08 05:06:32;;;;;;;24.37;12.80;;;;;;;-2.19;100.00;96415.94;4961412;28;20216;-84
2022/03/08 05:09:01;;;;;;;21.60;11.97;;;;;;;-2.19;100.00;96420.41;4959324;28;20205;-84
2022/03/08 05:11:29;;;;;;;24.17;13.20;;;;;;;-2.22;100.00;96410.97;4962426;28;20213;-85
2022/03/08 05:13:58;;;;;;;23.70;11.77;;;;;;;-2.16;100.00;96414.81;4955886;28;20219;-84
2022/03/08 05:16:39;;;;;;;25.50;13.57;;;;;;;-2.16;100.00;96420.94;4961028;28;20204;-84
2022/03/08 05:19:10;;;;;;;27.63;12.43;;;;;;;-2.13;100.00;96419.81;4967337;28;20267;-84
2022/03/08 05:21:41;;;;;;;19.77;11.70;;;;;;;-2.17;100.00;96418.44;4954272;28;20235;-84
2022/03/08 05:24:12;;;;;;;19.77;11.27;;;;;;;-2.25;100.00;96418.38;4956224;28;20250;-84
2022/03/08 05:26:41;;;;;;;23.27;11.87;;;;;;;-2.33;100.00;96409.38;4952572;28;20243;-84
2022/03/08 05:29:12;;;;;;;21.67;11.40;;;;;;;-2.26;100.00;96425.47;4960909;28;20208;-84
2022/03/08 05:34:45;;;;;;;20.13;10.63;;;;;;;-2.38;100.00;96416.91;4953935;28;20213;-84
2022/03/08 05:37:16;;;;;;;18.60;10.97;;;;;;;-2.45;100.00;96428.22;4957035;28;20339;-84
2022/03/08 05:39:44;;;;;;;22.90;11.20;;;;;;;-2.50;100.00;96417.28;4956111;28;20248;-84
2022/03/08 05:42:20;;;;;;;20.83;11.60;;;;;;;-2.52;100.00;96417.41;4970248;28;20206;-85
2022/03/08 05:44:59;;;;;;;20.53;11.03;;;;;;;-2.43;100.00;96429.75;4954862;28;20319;-84
2022/03/08 05:47:31;;;;;;;24.63;12.80;;;;;;;-2.39;100.00;96420.56;4949000;28;20217;-84
2022/03/08 05:50:07;;;;;;;19.63;11.97;;;;;;;-2.31;100.00;96409.22;4962369;28;20217;-84
2022/03/08 05:52:40;;;;;;;20.37;11.20;;;;;;;-2.24;100.00;96420.03;4954953;28;20217;-84
2022/03/08 05:55:13;;;;;;;19.43;10.33;;;;;;;-2.19;100.00;96425.69;4962483;28;20216;-84
2022/03/08 05:57:42;;;;;;;24.77;12.77;;;;;;;-2.14;100.00;96416.34;4971163;28;20222;-84
2022/03/08 06:00:14;;;;;;;20.40;11.00;;;;;;;-2.06;100.00;96423.53;4972272;28;20213;-83
2022/03/08 06:02:49;;;;;;;16.90;9.87;;;;;;;-2.04;99.43;96418.94;4959038;28;20210;-83
2022/03/08 06:05:28;;;;;;;19.67;10.97;;;;;;;-2.17;100.00;96400.75;4984045;28;20210;-82
2022/03/08 06:08:00;;;;;;;24.23;11.50;;;;;;;-2.19;100.00;96412.47;4958378;28;20259;-83
2022/03/08 06:10:27;;;;;;;22.70;11.53;;;;;;;-2.18;100.00;96401.75;4958020;28;20209;-83
2022/03/08 06:13:06;;;;;;;17.90;10.23;;;;;;;-2.05;100.00;96417.25;4966669;28;20318;-82
2022/03/08 06:15:41;;;;;;;20.07;10.70;;;;;;;-2.01;98.13;96408.84;4959580;28;20212;-82
2022/03/08 06:18:14;;;;;;;21.27;11.10;;;;;;;-1.94;98.38;96417.84;4956867;28;20250;-83
2022/03/08 06:20:50;;;;;;;23.27;11.30;;;;;;;-2.00;98.53;96415.81;4956301;28;20232;-83
2022/03/08 06:23:24;;;;;;;23.50;12.43;;;;;;;-2.02;99.60;96425.72;4985668;28;20321;-83
2022/03/08 06:25:55;;;;;;;25.27;13.00;;;;;;;-2.10;100.00;96416.84;4959370;28;20209;-83
2022/03/08 06:28:30;;;;;;;20.63;11.73;;;;;;;-2.05;100.00;96420.75;4961675;28;20208;-83
2022/03/08 06:31:00;;;;;;;20.87;11.90;;;;;;;-2.02;100.00;96423.06;4957914;28;20227;-83
2022/03/08 06:33:32;;;;;;;21.47;12.00;;;;;;;-2.03;100.00;96415.28;4954989;28;20203;-83
2022/03/08 06:36:07;;;;;;;25.80;12.60;;;;;;;-2.02;100.00;96419.59;4971517;28;20226;-83
2022/03/08 06:38:36;;;;;;;20.60;11.13;;;;;;;-2.04;99.52;96416.28;5044576;28;20323;-82
2022/03/08 06:41:03;;;;;;;19.37;11.53;;;;;;;-2.09;98.53;96419.34;4970573;28;20233;-83
2022/03/08 06:43:30;;;;;;;26.17;10.73;;;;;;;-2.12;99.07;96416.16;4958041;28;20225;-83
2022/03/08 06:45:57;;;;;;;23.27;11.20;;;;;;;-2.16;99.51;96409.53;4977427;28;20215;-83
2022/03/08 06:48:25;;;;;;;18.90;10.57;;;;;;;-2.05;99.14;96412.81;4959579;28;20258;-83
2022/03/08 06:50:52;;;;;;;19.33;10.97;;;;;;;-1.97;98.97;96420.81;4960439;28;20213;-83
2022/03/08 06:53:19;;;;;;;22.13;11.67;;;;;;;-1.95;98.88;96412.69;4964200;28;20212;-85
2022/03/08 06:55:48;;;;;;;19.40;10.97;;;;;;;-1.89;98.01;96417.41;4961382;28;20220;-83
2022/03/08 06:58:21;;;;;;;19.50;11.27;;;;;;;-1.88;98.31;96424.38;4952717;28;20214;-83
2022/03/08 07:00:50;;;;;;;22.80;11.03;;;;;;;-1.82;97.87;96426.41;4956282;28;20225;-83
2022/03/08 07:03:21;;;;;;;20.73;11.13;;;;;;;-1.80;98.02;96416.50;4959098;28;20227;-82
2022/03/08 07:05:48;;;;;;;20.43;11.43;;;;;;;-1.82;97.33;96415.81;4959682;28;20231;-82
2022/03/08 07:08:16;;;;;;;20.03;10.80;;;;;;;-1.84;96.42;96415.13;4959828;28;20206;-83
2022/03/08 07:10:43;;;;;;;20.27;10.83;;;;;;;-1.87;96.91;96412.78;4962464;28;20224;-83
2022/03/08 07:13:12;;;;;;;20.27;12.03;;;;;;;-1.84;98.31;96425.72;4959675;28;20228;-83
2022/03/08 07:15:39;;;;;;;24.43;11.07;;;;;;;-1.83;98.65;96423.91;4960824;28;20240;-83
2022/03/08 07:18:07;;;;;;;20.40;10.97;;;;;;;-1.82;98.10;96423.75;4956081;28;20209;-83
2022/03/08 07:20:34;;;;;;;24.77;12.33;;;;;;;-1.81;98.14;96424.59;4990583;28;20248;-84
2022/03/08 07:23:01;;;;;;;21.03;12.17;;;;;;;-1.77;98.54;96416.19;4970150;28;20233;-83
2022/03/08 07:25:29;;;;;;;24.27;12.73;;;;;;;-1.72;98.61;96419.22;4967975;28;20215;-84
2022/03/08 07:27:58;;;;;;;21.03;12.07;;;;;;;-1.74;97.85;96415.88;4979432;28;20216;-83
2022/03/08 07:30:27;;;;;;;21.63;11.97;;;;;;;-1.76;97.69;96407.25;4959988;28;20206;-83
2022/03/08 07:32:54;;;;;;;22.67;12.77;;;;;;;-1.77;97.50;96413.53;4964824;28;20243;-83
2022/03/08 07:35:21;;;;;;;22.67;12.43;;;;;;;-1.73;96.98;96414.91;4956739;28;20317;-83
2022/03/08 07:37:49;;;;;;;20.37;12.03;;;;;;;-1.71;97.03;96420.88;4966477;28;20208;-82
2022/03/08 07:40:16;;;;;;;20.17;12.47;;;;;;;-1.72;96.62;96419.22;4968125;28;20225;-83
2022/03/08 07:42:44;;;;;;;23.63;12.57;;;;;;;-1.79;96.17;96412.88;4967523;28;20300;-84
2022/03/08 07:45:11;;;;;;;22.23;12.70;;;;;;;-1.86;96.27;96417.09;4963081;28;20209;-83
2022/03/08 07:47:39;;;;;;;20.23;12.30;;;;;;;-1.82;96.51;96418.47;4958299;28;20283;-84
2022/03/08 07:50:11;;;;;;;21.87;12.17;;;;;;;-1.81;96.70;96420.13;4965213;28;20269;-83
2022/03/08 07:52:39;;;;;;;21.60;12.20;;;;;;;-1.81;96.89;96420.13;4968142;28;20226;-83
2022/03/08 07:55:09;;;;;;;25.37;12.87;;;;;;;-1.80;96.32;96421.78;4966084;28;20223;-83
2022/03/08 07:57:42;;;;;;;23.50;13.30;;;;;;;-1.81;97.04;96422.78;4968814;28;20209;-83
2022/03/08 08:00:11;;;;;;;24.40;13.10;;;;;;;-1.77;97.81;96421.47;4959471;28;20237;-83
2022/03/08 08:02:39;;;;;;;25.97;13.57;;;;;;;-1.84;98.75;96425.72;4963038;28;20212;-83
2022/03/08 08:05:08;;;;;;;27.17;14.00;;;;;;;-1.79;99.31;96434.03;4963402;28;20205;-83
2022/03/08 08:07:35;;;;;;;30.87;15.17;;;;;;;-1.73;98.67;96429.94;4974993;28;20243;-83
2022/03/08 08:10:02;;;;;;;25.47;13.13;;;;;;;-1.69;98.90;96434.78;4974045;28;20248;-83
2022/03/08 08:12:29;;;;;;;27.27;13.97;;;;;;;-1.70;98.11;96437.59;4974836;28;20219;-83
2022/03/08 08:14:56;;;;;;;26.37;13.83;;;;;;;-1.71;98.58;96441.22;4968604;28;20209;-83
2022/03/08 08:17:24;;;;;;;24.20;13.23;;;;;;;-1.66;99.80;96444.22;4959515;28;20224;-83
2022/03/08 08:19:52;;;;;;;25.60;12.47;;;;;;;-1.59;99.09;96446.13;4973677;28;20229;-84
2022/03/08 08:22:20;;;;;;;25.37;12.43;;;;;;;-1.54;98.35;96445.69;4967452;28;20201;-84
2022/03/08 08:25:02;;;;;;;19.50;11.73;;;;;;;-1.56;98.01;96440.53;4963008;28;20221;-83
2022/03/08 08:27:29;;;;;;;25.73;12.37;;;;;;;-1.53;97.92;96445.50;4960324;28;20217;-84
2022/03/08 08:29:56;;;;;;;31.70;13.40;;;;;;;-1.47;97.91;96454.66;4957924;28;20217;-84
2022/03/08 08:32:23;;;;;;;20.93;12.00;;;;;;;-1.38;98.13;96463.50;4970769;28;20224;-84
2022/03/08 08:34:52;;;;;;;23.47;12.67;;;;;;;-1.22;98.58;96466.28;4961670;28;20206;-83
2022/03/08 08:37:21;;;;;;;22.33;12.63;;;;;;;-1.08;96.61;96463.06;4953647;28;20233;-83
2022/03/08 08:39:48;;;;;;;23.03;13.77;;;;;;;-0.87;95.15;96468.00;4945228;28;20229;-84
2022/03/08 08:42:15;;;;;;;24.27;13.83;;;;;;;-0.68;92.62;96466.94;4958831;28;20286;-83
2022/03/08 08:44:42;;;;;;;22.73;13.10;;;;;;;-0.57;91.67;96464.00;4957337;28;20309;-84
2022/03/08 08:47:09;;;;;;;22.87;13.33;;;;;;;-0.34;89.12;96465.09;4952127;28;20236;-83
2022/03/08 08:49:38;;;;;;;24.10;13.67;;;;;;;-0.35;90.55;96471.41;4957324;28;20205;-83
2022/03/08 08:52:14;;;;;;;28.50;14.43;;;;;;;-0.24;90.31;96467.63;4960393;28;20228;-84
2022/03/08 08:54:52;;;;;;;26.47;13.93;;;;;;;-0.02;87.24;96465.22;4952915;28;20205;-82
2022/03/08 08:57:25;;;;;;;22.40;13.87;;;;;;;-0.07;88.26;96459.53;4968662;28;20209;-82
2022/03/08 08:59:55;;;;;;;26.43;15.33;;;;;;;0.05;89.36;96453.94;4963354;28;20235;-82
2022/03/08 09:02:26;;;;;;;27.57;15.97;;;;;;;0.18;89.20;96471.06;4976286;28;20224;-83
2022/03/08 09:05:10;;;;;;;25.13;14.40;;;;;;;0.46;89.39;96468.94;4965546;28;20219;-84
2022/03/08 09:07:45;;;;;;;28.63;16.67;;;;;;;0.64;89.70;96474.94;4990841;28;20212;-83
2022/03/08 09:10:15;;;;;;;36.77;18.03;;;;;;;0.77;88.96;96470.97;4950414;28;20212;-84
2022/03/08 09:12:43;;;;;;;33.17;18.40;;;;;;;0.95;88.38;96482.22;4974948;28;20292;-84
2022/03/08 09:15:10;;;;;;;30.17;17.00;;;;;;;1.07;88.18;96483.56;4968755;28;20213;-82
2022/03/08 09:17:47;;;;;;;31.77;18.27;;;;;;;1.20;86.97;96483.84;4963985;28;20217;-85
2022/03/08 09:20:25;;;;;;;29.47;17.43;;;;;;;1.34;86.70;96474.38;4969709;28;20253;-84
2022/03/08 09:23:02;;;;;;;29.30;16.73;;;;;;;1.49;84.32;96472.66;4970751;28;20310;-83
2022/03/08 09:25:39;;;;;;;30.13;17.67;;;;;;;1.66;82.52;96473.44;4963419;28;20214;-85
2022/03/08 09:28:39;;;;;;;27.23;15.97;;;;;;;1.80;80.96;96478.03;4968516;28;20215;-84
2022/03/08 09:47:05;;;;;;;28.63;16.87;;;;;;;2.46;75.54;96460.72;4896126;28;20222;-83
2022/03/08 09:59:06;;;;;;;28.17;16.27;;;;;;;3.05;70.83;96456.41;4904512;29;20215;-78
2022/03/08 10:01:33;;;;;;;27.00;16.43;;;;;;;3.15;69.62;96448.94;4964454;28;20235;-79
2022/03/08 10:04:02;;;;;;;29.80;17.33;;;;;;;3.26;70.65;96437.00;4958418;28;20224;-78
2022/03/08 10:06:40;;;;;;;25.47;16.77;;;;;;;3.37;68.33;96434.72;4962570;28;20245;-79
2022/03/08 10:09:11;;;;;;;27.03;13.83;;;;;;;3.47;64.33;96439.78;4950583;28;20282;-78
2022/03/08 10:11:39;;;;;;;24.73;14.67;;;;;;;3.52;64.26;96429.38;4956711;28;20208;-78
2022/03/08 10:14:07;;;;;;;26.17;15.83;;;;;;;3.76;65.25;96418.41;4954576;28;20209;-79
2022/03/08 10:16:42;;;;;;;26.53;15.40;;;;;;;3.76;64.05;96418.41;4977834;28;20262;-78
2022/03/08 10:19:12;;;;;;;24.80;15.03;;;;;;;3.82;64.31;96416.03;4979088;28;20208;-78
2022/03/08 10:21:41;;;;;;;24.87;14.93;;;;;;;3.89;63.34;96411.56;4963982;28;20225;-79
2022/03/08 10:24:14;;;;;;;25.20;14.03;;;;;;;4.06;62.86;96407.69;4962525;28;20236;-79
2022/03/08 10:26:47;;;;;;;20.87;12.53;;;;;;;4.25;59.16;96409.75;4957651;28;20204;-80
2022/03/08 10:29:14;;;;;;;20.67;13.47;;;;;;;4.46;58.48;96400.91;4959961;28;20219;-79
2022/03/08 10:31:41;;;;;;;17.10;11.43;;;;;;;4.76;55.50;96390.91;4962387;28;20200;-79
2022/03/08 10:34:16;;;;;;;18.87;10.67;;;;;;;5.02;52.65;96398.31;4972363;28;20205;-79
2022/03/08 10:36:59;;;;;;;17.20;10.70;;;;;;;4.90;50.04;96380.09;4952283;28;20193;-79
2022/03/08 10:39:26;;;;;;;18.13;11.13;;;;;;;5.12;50.80;96378.19;4962019;28;20282;-78
2022/03/08 10:41:56;;;;;;;16.97;10.80;;;;;;;5.25;49.71;96378.28;4970654;28;20229;-78
2022/03/08 10:44:38;;;;;;;20.87;11.80;;;;;;;5.46;49.25;96372.00;4969505;28;20220;-79
2022/03/08 10:47:08;;;;;;;18.43;11.80;;;;;;;5.62;48.38;96373.53;4962742;28;20223;-80
2022/03/08 10:49:49;;;;;;;15.40;10.33;;;;;;;5.80;47.75;96371.16;4975088;28;20219;-79
2022/03/08 10:52:17;;;;;;;18.53;12.47;;;;;;;6.00;47.58;96369.41;4960712;28;20247;-78
2022/03/08 10:54:44;;;;;;;20.27;10.70;;;;;;;6.03;46.85;96371.69;4967331;28;20208;-79
2022/03/08 10:57:11;;;;;;;17.87;11.20;;;;;;;6.28;45.75;96365.78;4959100;28;20241;-80
2022/03/08 10:59:53;;;;;;;16.67;9.97;;;;;;;6.40;44.62;96362.28;4972119;28;20208;-78
2022/03/08 11:02:21;;;;;;;16.83;10.57;;;;;;;6.61;44.25;96363.16;4973803;28;20316;-79
2022/03/08 11:05:06;;;;;;;17.20;10.17;;;;;;;6.99;43.03;96366.03;4963834;28;20222;-79
2022/03/08 11:07:34;;;;;;;18.53;11.23;;;;;;;7.28;44.85;96357.53;4957939;28;20500;-79
2022/03/08 11:10:01;;;;;;;19.97;12.57;;;;;;;7.53;45.14;96361.22;4978309;28;20336;-79
2022/03/08 11:12:29;;;;;;;20.33;12.70;;;;;;;7.52;45.34;96364.09;4959041;28;20209;-79
2022/03/08 11:14:56;;;;;;;20.97;13.13;;;;;;;7.27;45.50;96350.53;4956744;28;20221;-79
2022/03/08 11:17:25;;;;;;;26.53;13.47;;;;;;;7.21;45.72;96370.16;4958938;28;20296;-79
2022/03/08 11:19:53;;;;;;;19.60;12.93;;;;;;;7.13;46.33;96354.28;4966193;28;20212;-79
2022/03/08 11:22:23;;;;;;;22.87;14.93;;;;;;;7.24;48.04;96348.25;4963610;28;20248;-80
2022/03/08 11:24:53;;;;;;;22.97;15.57;;;;;;;7.33;50.87;96351.53;4962189;28;20220;-79
2022/03/08 11:27:21;;;;;;;27.83;17.60;;;;;;;7.34;53.40;96351.34;4962024;28;20496;-80
2022/03/08 11:29:50;;;;;;;28.57;17.83;;;;;;;7.27;54.53;96353.22;4956067;28;20211;-79
2022/03/08 11:32:22;;;;;;;30.97;19.87;;;;;;;6.89;59.56;96350.34;4965437;28;20210;-80
2022/03/08 11:34:58;;;;;;;29.20;18.83;;;;;;;6.74;60.40;96350.56;4959575;28;20219;-80
2022/03/08 11:37:29;;;;;;;33.13;19.93;;;;;;;6.62;60.55;96360.28;4968409;28;20212;-79
2022/03/08 11:40:07;;;;;;;32.47;20.10;;;;;;;6.47;61.93;96347.03;4968996;28;20383;-79
2022/03/08 11:42:37;;;;;;;34.00;20.47;;;;;;;6.47;62.46;96346.19;4959779;28;20285;-79
2022/03/08 11:45:07;;;;;;;34.40;20.27;;;;;;;6.26;62.74;96349.06;4958963;28;20221;-78
2022/03/08 11:47:39;;;;;;;34.27;21.17;;;;;;;6.18;62.81;96341.22;4974501;28;20201;-79
2022/03/08 11:50:21;;;;;;;31.57;19.20;;;;;;;6.13;63.27;96336.44;4961766;28;20212;-79
2022/03/08 11:52:52;;;;;;;36.63;21.27;;;;;;;5.98;64.01;96336.63;4962839;28;20300;-79
2022/03/08 11:55:27;;;;;;;34.10;20.17;;;;;;;6.15;65.71;96341.59;4957337;28;20205;-78
2022/03/08 11:58:02;;;;;;;32.33;20.10;;;;;;;6.42;62.88;96332.59;4957539;28;20244;-78
2022/03/08 12:00:38;;;;;;;31.83;20.20;;;;;;;6.66;62.13;96329.28;4960321;28;20221;-79